Donna Nook, United Kingdom
Current Conditions -  °F | °C
As of 2:50 AM on Tuesday 23 Dec 2014 (Local Time) from EGXS Reporting Station
Broken Clouds Broken Clouds  
Wind Chill: 12°   Ceiling: 1900
Heat Index: 12°   Visibility: 6mi
Dew Point:   Wind: 26mph
Humidity: 82%   Direction: 210°SSW
Pressure: 29.83"   Gusts: NA
Location:  53.47°N, 0.15°E
Report Text: EGXS 230250Z AUTO 21023KT 9999 // BKN019/// SCT029/// 12/09 Q1010
Loading
Personal Weather Stations






























Interactive Weather Map New forecast layout! Learn more

10-Day Weather Forecast

Advertisements
Track Severe Weather on mobile